Latest Weather Observations for Port Augusta

IDS60801

Issued at 8:31 pm CST Saturday 30 July 2016 (issued every 30 minutes, with the page automatically refreshed every 10 minutes)

About weather observations | Map of weather stations | Latest weather observations for SA | Other Formats
Station Details ID: 018201 Name: PORT AUGUSTA AERO Lat: -32.51 Lon: 137.72 Height: 13.97 m
Data from the previous 72 hours. | See also: Recent months at Port Augusta
Date/Time
CST
Temp
°C
App
Temp
°C
Dew
Point
°C
Rel
Hum
%
Delta-T
°C
Wind Press
QNH
hPa
Press
MSL
hPa
Rain since
9am
mm
Dir  Spd
km/h
Gust
km/h
Spd
kts
Gust
kts
30/08:30pm 16.6 11.0 3.3 41 6.1 N 22 26 12 14 1017.1 1017.1 0.0
30/08:00pm 17.0 11.8 3.7 41 6.2 N 20 26 11 14 1017.2 1017.2 0.0
30/07:30pm 16.7 12.2 4.1 43 5.9 N 17 19 9 10 1017.0 1017.0 0.0
30/07:00pm 17.0 13.3 4.3 43 6.0 N 13 17 7 9 1017.0 1017.0 0.0
30/06:30pm 18.3 13.3 3.8 38 6.8 N 19 24 10 13 1016.7 1016.7 0.0
30/06:00pm 18.7 13.9 2.5 34 7.4 N 17 20 9 11 1016.1 1016.1 0.0
30/05:30pm 19.8 14.4 2.2 31 8.1 N 20 30 11 16 1015.9 1015.9 0.0
30/05:00pm 20.5 13.9 2.3 30 8.4 N 26 35 14 19 1015.9 1015.9 0.0
30/04:30pm 21.0 12.6 1.8 28 8.9 NNW 35 46 19 25 1015.4 1015.4 0.0
30/04:00pm 21.9 13.1 1.6 26 9.4 NNW 37 50 20 27 1015.1 1015.1 0.0
30/03:30pm 21.9 13.7 2.6 28 9.1 N 35 46 19 25 1015.0 1015.0 0.0
30/03:00pm 22.0 13.4 2.7 28 9.1 NNW 37 50 20 27 1015.8 1015.8 0.0
30/02:30pm 21.8 13.7 3.0 29 8.9 N 35 48 19 26 1016.2 1016.2 0.0
30/02:00pm 21.2 12.9 4.3 33 8.2 N 37 48 20 26 1016.7 1016.7 0.0
30/01:30pm 19.7 12.1 3.8 35 7.5 N 33 44 18 24 1017.3 1017.3 0.0
30/01:00pm 19.9 11.2 4.0 35 7.6 N 39 46 21 25 1017.6 1017.6 0.0
30/12:30pm 18.5 11.0 4.7 40 6.6 N 33 43 18 23 1018.6 1018.6 0.0
30/12:00pm 17.5 9.6 4.5 42 6.1 N 35 46 19 25 1019.5 1019.5 0.0
30/11:30am 16.6 9.3 4.6 45 5.6 N 32 44 17 24 1020.3 1020.3 0.0
30/11:00am 14.9 8.3 4.3 49 4.9 N 28 39 15 21 1021.0 1021.0 0.0
30/10:30am 14.0 8.6 4.3 52 4.4 N 22 32 12 17 1021.6 1021.6 0.0
30/10:00am 13.3 6.8 4.5 55 4.0 N 28 37 15 20 1021.6 1021.6 0.0
30/09:30am 12.6 8.2 4.6 58 3.6 NNW 17 28 9 15 1021.5 1021.5 0.0
30/09:00am 11.4 7.3 4.4 62 3.1 N 15 19 8 10 1021.2 1021.2 0.0
30/08:30am 10.4 6.6 4.1 65 2.8 NNW 13 19 7 10 1021.4 1021.4 0.0
30/08:00am 9.9 4.8 3.9 66 2.6 N 20 30 11 16 1021.3 1021.3 0.0
30/07:30am 8.9 4.7 3.9 71 2.2 NW 15 17 8 9 1021.7 1021.7 0.0
30/07:00am 8.9 4.8 4.1 72 2.1 NW 15 19 8 10 1021.6 1021.6 0.0
30/06:30am 8.9 5.1 3.9 71 2.2 NW 13 17 7 9 1021.2 1021.2 0.0
30/06:00am 8.5 5.1 3.9 73 2.0 NW 11 13 6 7 1021.1 1021.1 0.0
30/05:38am 8.5 5.1 3.9 73 2.0 NW 11 13 6 7 1020.8 1020.8 0.0
30/05:30am 6.9 3.4 3.5 79 1.4 NW 11 15 6 8 1020.7 1020.7 0.0
30/05:19am 6.7 3.6 3.7 81 1.3 WNW 9 13 5 7 1020.8 1020.8 0.0
30/05:00am 5.5 1.9 3.0 84 1.0 WSW 11 13 6 7 1020.6 1020.6 0.0
30/04:30am 7.0 3.2 3.8 80 1.4 WNW 13 15 7 8 1020.5 1020.5 0.0
30/04:00am 7.6 5.0 4.0 78 1.6 WNW 7 9 4 5 1020.6 1020.6 0.0
30/03:30am 8.3 5.3 3.9 74 1.9 WNW 9 13 5 7 1020.8 1020.8 0.0
30/03:00am 9.0 4.9 4.4 73 2.0 NW 15 19 8 10 1021.1 1021.1 0.0
30/02:30am 8.5 5.6 4.9 78 1.6 WNW 9 11 5 6 1021.2 1021.2 0.0
30/02:00am 8.8 5.9 4.6 75 1.9 W 9 9 5 5 1021.4 1021.4 0.0
30/01:30am 9.4 6.9 4.8 73 2.0 WNW 7 11 4 6 1021.8 1021.8 0.0
30/01:00am 8.9 5.7 4.9 76 1.8 NW 11 15 6 8 1022.2 1022.2 0.0
30/12:30am 8.2 5.3 4.8 79 1.5 W 9 11 5 6 1022.3 1022.3 0.0
30/12:00am 8.3 5.1 5.2 81 1.4 W 11 13 6 7 1022.7 1022.7 0.0
 
Date/Time
CST
Temp
°C
App
Temp
°C
Dew
Point
°C
Rel
Hum
%
Delta-T
°C
Wind Press
QNH
hPa
Press
MSL
hPa
Rain since
9am
mm
Dir  Spd
km/h
Gust
km/h
Spd
kts
Gust
kts
29/11:30pm 6.9 4.0 4.4 84 1.1 W 9 11 5 6 1022.8 1022.8 0.0
29/11:00pm 6.6 3.6 3.9 83 1.2 W 9 11 5 6 1023.1 1023.1 0.0
29/10:30pm 7.9 5.5 4.5 79 1.5 WNW 6 9 3 5 1023.2 1023.2 0.0
29/10:00pm 8.2 5.7 4.6 78 1.6 W 7 9 4 5 1023.4 1023.4 0.0
29/09:30pm 8.8 6.3 5.0 77 1.7 W 7 9 4 5 1023.4 1023.4 0.0
29/09:00pm 9.9 7.8 5.7 75 1.9 W 6 6 3 3 1023.4 1023.4 0.0
29/08:30pm 10.0 7.7 5.8 75 1.9 WNW 7 9 4 5 1023.4 1023.4 0.0
29/08:00pm 10.7 7.6 5.5 70 2.4 N 11 15 6 8 1023.2 1023.2 0.0
29/07:30pm 10.8 7.3 5.3 69 2.5 NNE 13 15 7 8 1023.0 1023.0 0.0
29/07:00pm 11.2 7.3 5.5 68 2.6 NNE 15 17 8 9 1022.8 1022.8 0.0
29/06:30pm 11.5 7.9 4.9 64 3.0 NNE 13 15 7 8 1022.9 1022.9 0.0
29/06:00pm 12.9 9.5 4.1 55 4.0 N 11 13 6 7 1022.6 1022.6 0.0
29/05:30pm 15.0 12.1 4.7 50 4.8 NNW 9 11 5 6 1022.6 1022.6 0.0
29/05:00pm 17.4 14.5 4.7 43 6.0 NNW 9 11 5 6 1022.5 1022.5 0.0
29/04:30pm 18.7 15.7 4.1 38 6.9 NW 9 15 5 8 1022.7 1022.7 0.0
29/04:00pm 19.3 15.5 3.9 36 7.3 NW 13 19 7 10 1022.8 1022.8 0.0
29/03:30pm 18.5 14.3 3.9 38 6.9 NW 15 22 8 12 1023.0 1023.0 0.0
29/03:00pm 18.4 14.7 4.6 40 6.6 NNW 13 19 7 10 1023.1 1023.1 0.0
29/02:30pm 18.5 14.5 5.0 41 6.5 NNW 15 22 8 12 1023.2 1023.2 0.0
29/02:00pm 18.9 15.3 5.0 40 6.7 NNW 13 24 7 13 1023.6 1023.6 0.0
29/01:30pm 18.0 13.1 4.9 42 6.3 NW 20 28 11 15 1024.1 1024.1 0.0
29/01:00pm 17.8 13.5 5.4 44 6.0 NNW 17 28 9 15 1024.4 1024.4 0.0
29/12:30pm 17.3 13.0 5.3 45 5.7 NNW 17 22 9 12 1025.1 1025.1 0.0
29/12:00pm 17.4 12.9 6.0 47 5.5 N 19 26 10 14 1025.6 1025.6 0.0
29/11:30am 16.9 12.1 5.8 48 5.3 NNW 20 30 11 16 1026.0 1026.0 0.0
29/11:00am 15.3 11.1 5.8 53 4.6 NNW 17 24 9 13 1026.8 1026.8 0.0
29/10:30am 13.6 10.6 6.2 61 3.5 NW 11 15 6 8 1027.0 1027.0 0.0
29/10:00am 10.1 7.3 5.3 72 2.2 NNW 9 13 5 7 1027.1 1027.1 0.0
29/09:30am 9.9 7.1 5.3 73 2.1 NNW 9 13 5 7 1027.2 1027.2 0.0
29/09:00am 8.0 5.8 5.3 83 1.2 N 6 9 3 5 1027.5 1027.5 0.0
29/08:30am 5.2 3.9 4.3 94 0.4 CALM 0 0 0 0 1027.7 1027.7 0.0
29/08:00am 2.5 -0.3 1.9 96 0.2 NNW 6 9 3 5 1027.4 1027.4 0.0
29/07:30am 0.9 -2.8 0.2 95 0.3 W 9 11 5 6 1027.3 1027.3 0.0
29/07:00am 0.8 -3.3 0.1 95 0.3 W 11 13 6 7 1026.9 1026.9 0.0
29/06:30am 1.2 -2.0 0.5 95 0.3 W 7 9 4 5 1026.8 1026.8 0.0
29/06:00am 0.8 -2.5 0.1 95 0.3 W 7 9 4 5 1026.6 1026.6 0.0
29/05:30am 0.8 -3.3 0.1 95 0.3 W 11 13 6 7 1026.1 1026.1 0.0
29/05:00am 1.4 -1.8 0.7 95 0.3 W 7 9 4 5 1026.0 1026.0 0.0
29/04:30am 0.9 -2.2 0.2 95 0.3 WNW 6 7 3 4 1026.1 1026.1 0.0
29/04:00am 1.3 -2.3 0.6 95 0.3 NNW 9 11 5 6 1026.0 1026.0 0.0
29/03:30am 1.6 -1.4 0.7 94 0.3 NNW 6 9 3 5 1026.2 1026.2 0.0
29/03:00am 2.3 0.2 1.4 94 0.3 W 2 7 1 4 1026.3 1026.3 0.0
29/02:30am 1.3 -0.7 0.1 92 0.4 CALM 0 0 0 0 1026.5 1026.5 0.0
29/02:00am 2.6 0.1 1.6 93 0.4 W 4 6 2 3 1026.8 1026.8 0.0
29/01:30am 2.8 0.0 1.9 94 0.3 WNW 6 7 3 4 1026.8 1026.8 0.0
29/01:00am 2.8 -0.6 1.6 92 0.5 WNW 9 11 5 6 1026.8 1026.8 0.0
29/12:30am 3.4 1.1 2.5 94 0.4 SW 4 6 2 3 1026.8 1026.8 0.0
29/12:00am 3.1 -0.3 2.1 93 0.4 SW 9 13 5 7 1027.3 1027.3 0.0
 
Date/Time
CST
Temp
°C
App
Temp
°C
Dew
Point
°C
Rel
Hum
%
Delta-T
°C
Wind Press
QNH
hPa
Press
MSL
hPa
Rain since
9am
mm
Dir  Spd
km/h
Gust
km/h
Spd
kts
Gust
kts
28/11:30pm 3.1 -0.7 1.9 92 0.5 WSW 11 13 6 7 1027.3 1027.3 0.0
28/11:00pm 4.3 1.5 3.3 93 0.4 W 7 9 4 5 1027.3 1027.3 0.0
28/10:30pm 3.7 0.4 2.5 92 0.5 WSW 9 11 5 6 1027.3 1027.3 0.0
28/10:00pm 3.8 1.0 2.3 90 0.6 SW 6 7 3 4 1027.5 1027.5 0.0
28/09:30pm 4.9 2.0 2.8 86 0.8 ESE 7 9 4 5 1027.8 1027.8 0.0
28/09:00pm 5.7 3.0 3.7 87 0.8 SE 7 9 4 5 1027.9 1027.9 0.0
28/08:30pm 6.0 3.4 4.0 87 0.8 WSW 7 9 4 5 1028.0 1028.0 0.0
28/08:00pm 6.6 3.7 4.4 86 0.9 WSW 9 11 5 6 1027.9 1027.9 0.0
28/07:30pm 7.3 4.9 4.3 81 1.3 N 6 7 3 4 1028.0 1028.0 0.0
28/07:00pm 9.1 7.2 4.9 75 1.9 N 4 6 2 3 1027.9 1027.9 0.0
28/06:30pm 11.1 8.8 5.8 70 2.4 N 7 9 4 5 1027.7 1027.7 0.0
28/06:00pm 11.8 9.4 5.2 64 3.0 N 7 9 4 5 1027.5 1027.5 0.0
28/05:30pm 13.5 10.9 5.9 60 3.6 N 9 11 5 6 1027.4 1027.4 0.0
28/05:00pm 15.3 13.2 5.8 53 4.6 N 6 9 3 5 1027.2 1027.2 0.0
28/04:30pm 16.1 13.5 6.0 51 4.9 NW 9 13 5 7 1027.3 1027.3 0.0
28/04:00pm 17.0 15.7 6.2 49 5.3 NNW 2 9 1 5 1027.5 1027.5 0.0
28/03:30pm 15.7 12.7 5.9 52 4.7 NNW 11 17 6 9 1027.8 1027.8 0.0
28/03:00pm 16.3 12.5 5.6 49 5.1 WNW 15 20 8 11 1027.9 1027.9 0.0
28/02:30pm 15.4 11.9 5.6 52 4.6 NW 13 19 7 10 1028.1 1028.1 0.0
28/02:00pm 15.7 12.7 6.2 53 4.6 WNW 11 19 6 10 1028.5 1028.5 0.0
28/01:30pm 16.5 13.6 6.3 51 4.9 N 11 28 6 15 1028.5 1028.5 0.0
28/01:00pm 15.6 13.0 6.1 53 4.6 NNW 9 24 5 13 1029.2 1029.2 0.0
28/12:30pm 15.3 12.6 5.5 52 4.6 W 9 13 5 7 1029.6 1029.6 0.0
28/12:00pm 13.9 11.6 5.5 57 3.9 SSW 7 11 4 6 1030.1 1030.1 0.0
28/11:30am 14.0 11.4 5.9 58 3.8 NNE 9 15 5 8 1030.7 1030.7 0.0
28/11:00am 13.9 11.9 6.3 60 3.6 N 6 9 3 5 1031.3 1031.3 0.0
28/10:30am 13.0 10.8 6.1 63 3.2 NNW 7 9 4 5 1031.6 1031.6 0.0
28/10:00am 12.1 9.9 6.2 67 2.8 NW 7 9 4 5 1031.5 1031.5 0.0
28/09:30am 10.7 8.8 6.6 76 1.9 WNW 6 9 3 5 1031.7 1031.7 0.0
28/09:00am 8.3 6.2 6.6 89 0.8 WNW 7 9 4 5 1031.7 1031.7 0.2
28/08:30am 6.1 4.0 5.7 97 0.2 WSW 6 7 3 4 1031.4 1031.4 0.2
28/08:00am 2.9 -0.4 2.5 97 0.2 WSW 9 11 5 6 1031.2 1031.2 0.2
28/07:30am 0.5 -2.8 -0.1 96 0.2 WNW 7 9 4 5 1030.6 1030.6 0.2
28/07:00am 0.8 -2.3 0.2 96 0.2 NE 6 9 3 5 1030.2 1030.2 0.2
28/06:30am 0.4 -1.6 -0.3 95 0.2 CALM 0 0 0 0 1029.8 1029.8 0.2
28/06:15am 0.5 -1.5 -0.2 95 0.3 CALM 0 0 0 0 1029.7 1029.7 0.2
28/06:00am 0.7 -1.3 0.0 95 0.3 CALM 0 0 0 0 1029.6 1029.6 0.2
28/05:46am 1.1 -0.8 0.4 95 0.3 CALM 0 0 0 0 1029.6 1029.6 0.2
28/05:30am 0.9 -1.1 0.2 95 0.3 CALM 0 0 0 0 1029.6 1029.6 0.2
28/05:16am 1.0 -0.9 0.3 95 0.3 CALM 0 0 0 0 1029.5 1029.5 0.2
28/05:00am 1.4 -0.5 0.7 95 0.3 CALM 0 0 0 0 1029.6 1029.6 0.2
28/04:52am 1.1 -0.9 0.2 94 0.3 CALM 0 0 0 0 1029.6 1029.6 0.2
28/04:30am 1.6 -0.3 0.7 94 0.3 CALM 0 0 0 0 1029.4 1029.4 0.2
28/04:00am 1.6 -0.3 0.7 94 0.3 CALM 0 0 0 0 1029.4 1029.4 0.2
28/03:30am 2.0 0.1 0.8 92 0.4 CALM 0 0 0 0 1029.3 1029.3 0.2
28/03:00am 2.9 0.8 1.6 91 0.5 SE 2 6 1 3 1029.1 1029.1 0.0
28/02:30am 3.6 0.8 2.0 89 0.6 S 6 7 3 4 1028.9 1028.9 0.0
28/02:00am 3.4 0.0 2.1 91 0.5 SSW 9 11 5 6 1029.0 1029.0 0.0
28/01:30am 2.2 -1.0 1.0 92 0.4 SSW 7 9 4 5 1029.0 1029.0 0.0
28/01:00am 2.6 -0.5 1.6 93 0.4 WSW 7 7 4 4 1028.9 1028.9 0.0
28/12:30am 2.9 -0.1 1.9 93 0.4 WNW 7 7 4 4 1028.8 1028.8 0.0
28/12:00am 3.9 1.2 2.4 90 0.6 SW 6 7 3 4 1028.9 1028.9 0.0
 
Date/Time
CST
Temp
°C
App
Temp
°C
Dew
Point
°C
Rel
Hum
%
Delta-T
°C
Wind Press
QNH
hPa
Press
MSL
hPa
Rain since
9am
mm
Dir  Spd
km/h
Gust
km/h
Spd
kts
Gust
kts
27/11:30pm 3.9 1.0 2.7 92 0.5 SW 7 9 4 5 1029.0 1029.0 0.0
27/11:00pm 3.5 0.5 2.3 92 0.5 SW 7 9 4 5 1029.2 1029.2 0.0
27/10:30pm 3.8 0.9 2.6 92 0.5 SW 7 9 4 5 1029.0 1029.0 0.0
27/10:00pm 4.5 1.9 3.2 91 0.5 SSW 6 7 3 4 1029.0 1029.0 0.0
27/09:30pm 5.1 3.7 3.3 88 0.7 CALM 0 0 0 0 1029.1 1029.1 0.0
27/09:00pm 7.2 6.2 5.5 89 0.8 CALM 0 2 0 1 1029.2 1029.2 0.0

Other Formats:

Comma delimited format used in spreadsheet applications
http://www.bom.gov.au/fwo/IDS60801/IDS60801.95666.axf

JavaScript Object Notation format (JSON) in row-major order
http://www.bom.gov.au/fwo/IDS60801/IDS60801.95666.json